Time;durP1;ratioP1;P1;durP2;ratioP2;P2;SDS_P1;SDS_P2;PMS_P1;PMS_P2;Temp;Humidity;BMP_temperature;BMP_pressure;BME280_temperature;BME280_humidity;BME280_pressure;Samples;Min_cycle;Max_cycle;Signal;HPM_P1;HPM_P2
2022/09/10 00:02:11;;;;;;;30.52;13.35;;;;;;;;;;5012453;28;20150;-67
2022/09/10 00:04:41;;;;;;;37.20;15.70;;;;;;;;;;5011836;28;20065;-67
2022/09/10 00:07:11;;;;;;;37.30;14.90;;;;;;;;;;5023041;28;20057;-69
2022/09/10 00:09:42;;;;;;;35.45;14.50;;;;;;;;;;5011648;28;20061;-68
2022/09/10 00:12:13;;;;;;;33.83;14.02;;;;;;;;;;4992158;28;20066;-68
2022/09/10 00:14:44;;;;;;;34.10;14.18;;;;;;;;;;4992563;28;20057;-68
2022/09/10 00:17:14;;;;;;;36.45;14.07;;;;;;;;;;4960347;28;20063;-68
2022/09/10 00:19:44;;;;;;;33.50;14.02;;;;;;;;;;4934644;29;20067;-69
2022/09/10 00:22:15;;;;;;;;;;;;;;;;;;4950700;28;20195;-68
2022/09/10 00:24:46;;;;;;;34.17;12.88;;;;;;;;;;5000496;28;19921;-69
2022/09/10 00:27:16;;;;;;;31.00;12.80;;;;;;;;;;5011474;28;20073;-67
2022/09/10 00:29:46;;;;;;;32.97;12.13;;;;;;;;;;5028030;28;20060;-68
2022/09/10 00:32:16;;;;;;;31.95;13.68;;;;;;;;;;5031093;28;20041;-68
2022/09/10 00:34:47;;;;;;;32.90;13.38;;;;;;;;;;5030806;28;20061;-68
2022/09/10 00:37:18;;;;;;;29.08;12.68;;;;;;;;;;5030951;28;20045;-68
2022/09/10 00:39:48;;;;;;;29.88;12.52;;;;;;;;;;5031033;28;20072;-68
2022/09/10 00:42:18;;;;;;;27.35;11.77;;;;;;;;;;4982685;28;20395;-68
2022/09/10 00:44:58;;;;;;;30.40;12.48;;;;;;;;;;4991643;28;20090;-68
2022/09/10 00:47:35;;;;;;;33.05;12.27;;;;;;;;;;4962354;28;20046;-68
2022/09/10 00:50:33;;;;;;;31.92;11.95;;;;;;;;;;5011126;28;20054;-68
2022/09/10 00:53:11;;;;;;;35.15;10.88;;;;;;;;;;4917691;29;20436;-68
2022/09/10 00:55:45;;;;;;;29.60;11.93;;;;;;;;;;4917887;29;20059;-68
2022/09/10 00:58:18;;;;;;;32.90;11.25;;;;;;;;;;4937087;29;20047;-67
2022/09/10 01:00:54;;;;;;;29.55;10.00;;;;;;;;;;4953075;29;20062;-67
2022/09/10 01:03:24;;;;;;;31.63;10.55;;;;;;;;;;4934894;29;20064;-67
2022/09/10 01:05:57;;;;;;;27.40;10.48;;;;;;;;;;4933669;29;20408;-67
2022/09/10 01:08:27;;;;;;;20.63;8.05;;;;;;;;;;4952480;28;20059;-67
2022/09/10 01:11:19;;;;;;;28.75;10.68;;;;;;;;;;4916999;29;20044;-66
2022/09/10 01:14:11;;;;;;;29.75;10.15;;;;;;;;;;4914926;29;20061;-67
2022/09/10 01:16:48;;;;;;;27.10;10.07;;;;;;;;;;4952238;28;20519;-66
2022/09/10 01:19:55;;;;;;;27.02;9.52;;;;;;;;;;4952865;28;20522;-66
2022/09/10 01:22:31;;;;;;;22.52;9.55;;;;;;;;;;4933258;29;20055;-66
2022/09/10 01:25:04;;;;;;;22.35;9.30;;;;;;;;;;4909434;29;20056;-66
2022/09/10 01:27:38;;;;;;;22.08;8.38;;;;;;;;;;4913948;29;20052;-66
2022/09/10 01:30:13;;;;;;;23.02;8.15;;;;;;;;;;4929260;28;20061;-66
2022/09/10 01:32:55;;;;;;;22.80;5.88;;;;;;;;;;4971806;28;20062;-67
2022/09/10 01:35:41;;;;;;;15.45;6.32;;;;;;;;;;4971078;28;20058;-67
2022/09/10 01:38:19;;;;;;;13.90;4.57;;;;;;;;;;4971292;28;20165;-68
2022/09/10 01:40:54;;;;;;;15.38;4.65;;;;;;;;;;4951744;28;20047;-67
2022/09/10 01:43:28;;;;;;;10.48;3.80;;;;;;;;;;4951904;29;20134;-69
2022/09/10 01:46:24;;;;;;;12.65;4.60;;;;;;;;;;4971042;28;20152;-66
2022/09/10 01:49:03;;;;;;;9.82;3.70;;;;;;;;;;4939058;28;20099;-67
2022/09/10 01:52:01;;;;;;;10.60;3.90;;;;;;;;;;4971328;28;20062;-67
2022/09/10 01:54:36;;;;;;;9.18;3.15;;;;;;;;;;4967917;28;20167;-66
2022/09/10 01:57:19;;;;;;;7.97;2.72;;;;;;;;;;4990261;28;20536;-66
2022/09/10 02:00:00;;;;;;;10.63;3.42;;;;;;;;;;4958953;28;20051;-66
2022/09/10 02:02:51;;;;;;;9.82;3.40;;;;;;;;;;4970862;28;20070;-66
2022/09/10 02:05:23;;;;;;;9.57;3.00;;;;;;;;;;4938873;28;20055;-66
2022/09/10 02:08:04;;;;;;;10.10;3.63;;;;;;;;;;4932513;29;20467;-67
2022/09/10 02:10:46;;;;;;;10.70;3.55;;;;;;;;;;4928576;29;20182;-66
2022/09/10 02:13:16;;;;;;;7.28;2.65;;;;;;;;;;4894084;29;20441;-67
2022/09/10 02:16:11;;;;;;;8.95;3.03;;;;;;;;;;4930564;28;20062;-67
2022/09/10 02:18:43;;;;;;;10.55;3.15;;;;;;;;;;4929148;29;20052;-66
2022/09/10 02:21:15;;;;;;;9.75;3.10;;;;;;;;;;4921545;29;20055;-66
2022/09/10 02:23:52;;;;;;;9.20;3.20;;;;;;;;;;4923731;29;20385;-66
2022/09/10 02:26:24;;;;;;;8.27;2.83;;;;;;;;;;4894531;29;20437;-66
2022/09/10 02:28:56;;;;;;;7.82;2.75;;;;;;;;;;4893956;29;20056;-66
2022/09/10 02:31:27;;;;;;;8.73;2.85;;;;;;;;;;4890794;29;20057;-67
2022/09/10 02:33:58;;;;;;;5.82;2.03;;;;;;;;;;4866455;29;20052;-66
2022/09/10 02:36:30;;;;;;;6.90;2.65;;;;;;;;;;4913606;29;20460;-66
2022/09/10 02:39:03;;;;;;;5.00;1.92;;;;;;;;;;4893720;29;20060;-66
2022/09/10 02:41:34;;;;;;;5.85;2.00;;;;;;;;;;4894211;29;20072;-66
2022/09/10 02:44:04;;;;;;;7.82;2.33;;;;;;;;;;4894310;29;20057;-66
2022/09/10 02:46:34;;;;;;;6.90;2.85;;;;;;;;;;4879670;29;20627;-66
2022/09/10 02:49:05;;;;;;;7.28;2.35;;;;;;;;;;4912977;29;20052;-67
2022/09/10 02:51:39;;;;;;;5.13;1.75;;;;;;;;;;4938521;29;20051;-66
2022/09/10 02:54:09;;;;;;;6.47;2.38;;;;;;;;;;4947341;29;20551;-66
2022/09/10 02:56:39;;;;;;;4.82;1.92;;;;;;;;;;4931929;29;20066;-65
2022/09/10 02:59:09;;;;;;;5.63;2.03;;;;;;;;;;4943471;29;20051;-66
2022/09/10 03:01:39;;;;;;;6.82;2.08;;;;;;;;;;4951262;29;20419;-66
2022/09/10 03:04:09;;;;;;;4.90;1.60;;;;;;;;;;4939725;29;20206;-66
2022/09/10 03:06:40;;;;;;;5.32;1.75;;;;;;;;;;4911705;29;20048;-66
2022/09/10 03:09:10;;;;;;;4.65;1.48;;;;;;;;;;4894167;29;20056;-66
2022/09/10 03:11:40;;;;;;;4.65;1.70;;;;;;;;;;4884314;29;20053;-66
2022/09/10 03:14:11;;;;;;;7.28;1.45;;;;;;;;;;4875325;29;20049;-66
2022/09/10 03:16:46;;;;;;;3.35;1.45;;;;;;;;;;4938161;28;20058;-66
2022/09/10 03:19:16;;;;;;;5.70;1.60;;;;;;;;;;4932135;29;20059;-66
2022/09/10 03:21:46;;;;;;;5.35;1.55;;;;;;;;;;4931702;29;20467;-66
2022/09/10 03:24:17;;;;;;;4.30;1.48;;;;;;;;;;4931616;29;20055;-68
2022/09/10 03:26:47;;;;;;;3.53;1.08;;;;;;;;;;4931979;29;20063;-68
2022/09/10 03:29:17;;;;;;;3.30;1.23;;;;;;;;;;4935365;29;20047;-69
2022/09/10 03:31:47;;;;;;;2.78;0.80;;;;;;;;;;4935369;29;20056;-68
2022/09/10 03:34:18;;;;;;;2.83;1.10;;;;;;;;;;4935978;29;20060;-67
2022/09/10 03:36:48;;;;;;;2.25;1.35;;;;;;;;;;4963731;28;20054;-68
2022/09/10 03:39:19;;;;;;;2.30;0.90;;;;;;;;;;4935211;29;20043;-67
2022/09/10 03:41:52;;;;;;;1.48;0.50;;;;;;;;;;4925371;29;20063;-66
2022/09/10 03:44:22;;;;;;;3.10;0.57;;;;;;;;;;4945363;28;20070;-67
2022/09/10 03:46:52;;;;;;;2.70;0.80;;;;;;;;;;4954096;28;20537;-67
2022/09/10 03:49:22;;;;;;;1.88;0.63;;;;;;;;;;4938239;28;20066;-66
2022/09/10 03:51:53;;;;;;;1.90;0.60;;;;;;;;;;4903169;29;20060;-66
2022/09/10 03:54:24;;;;;;;3.97;1.00;;;;;;;;;;4953778;28;20396;-66
2022/09/10 03:56:54;;;;;;;3.22;0.73;;;;;;;;;;4937621;28;20578;-66
2022/09/10 03:59:24;;;;;;;2.83;0.70;;;;;;;;;;4921973;29;20107;-66
2022/09/10 04:01:59;;;;;;;3.63;0.60;;;;;;;;;;4953782;28;20062;-67
2022/09/10 04:04:30;;;;;;;2.95;0.55;;;;;;;;;;4915796;29;20052;-67
2022/09/10 04:07:00;;;;;;;1.50;0.30;;;;;;;;;;4915489;29;20056;-67
2022/09/10 04:09:32;;;;;;;1.27;0.40;;;;;;;;;;4915635;29;20108;-66
2022/09/10 04:12:03;;;;;;;1.48;0.50;;;;;;;;;;4915392;29;20543;-67
2022/09/10 04:14:35;;;;;;;0.73;0.30;;;;;;;;;;4884080;29;20065;-66
2022/09/10 04:17:05;;;;;;;0.68;0.22;;;;;;;;;;4849147;29;20062;-66
2022/09/10 04:19:37;;;;;;;0.50;0.30;;;;;;;;;;4871127;29;20429;-66
2022/09/10 04:22:07;;;;;;;0.63;0.32;;;;;;;;;;4896743;29;20056;-66
2022/09/10 04:24:38;;;;;;;0.90;0.30;;;;;;;;;;4896461;29;20060;-66
2022/09/10 04:27:09;;;;;;;0.75;0.40;;;;;;;;;;4915039;29;20555;-67
2022/09/10 04:29:41;;;;;;;1.08;0.50;;;;;;;;;;4926391;29;20444;-67
2022/09/10 04:32:13;;;;;;;1.45;0.20;;;;;;;;;;4929481;29;20066;-66
2022/09/10 04:34:44;;;;;;;1.02;0.30;;;;;;;;;;4933760;29;20059;-66
2022/09/10 04:37:14;;;;;;;0.73;0.10;;;;;;;;;;4934238;29;20055;-66
2022/09/10 04:39:48;;;;;;;0.35;0.10;;;;;;;;;;4959758;28;20055;-66
2022/09/10 04:42:19;;;;;;;0.32;0.20;;;;;;;;;;4942830;29;20052;-66
2022/09/10 04:44:51;;;;;;;0.40;0.15;;;;;;;;;;4949338;29;20055;-67
2022/09/10 04:47:22;;;;;;;0.45;0.20;;;;;;;;;;4925632;29;20059;-66
2022/09/10 04:49:53;;;;;;;0.57;0.40;;;;;;;;;;4896271;29;20051;-67
2022/09/10 04:52:24;;;;;;;0.70;0.20;;;;;;;;;;4917075;29;20059;-66
2022/09/10 04:54:55;;;;;;;0.95;0.40;;;;;;;;;;4933504;29;20055;-67
2022/09/10 04:57:26;;;;;;;0.50;0.50;;;;;;;;;;4910145;29;20052;-66
2022/09/10 04:59:58;;;;;;;2.85;0.20;;;;;;;;;;4895972;29;20052;-66
2022/09/10 05:02:28;;;;;;;0.40;0.20;;;;;;;;;;4895957;29;20166;-66
2022/09/10 05:04:58;;;;;;;0.75;0.20;;;;;;;;;;4896410;29;20068;-66
2022/09/10 05:07:29;;;;;;;0.40;0.20;;;;;;;;;;4895856;29;20057;-67
2022/09/10 05:10:01;;;;;;;0.20;0.20;;;;;;;;;;4914531;29;20060;-66
2022/09/10 05:12:32;;;;;;;0.50;0.20;;;;;;;;;;4910434;29;20044;-66
2022/09/10 05:15:02;;;;;;;0.30;0.10;;;;;;;;;;4914461;29;20052;-66
2022/09/10 05:17:34;;;;;;;0.80;0.55;;;;;;;;;;4914716;29;20386;-66
2022/09/10 05:20:06;;;;;;;0.22;0.20;;;;;;;;;;4914248;29;20100;-66
2022/09/10 05:22:41;;;;;;;0.30;0.20;;;;;;;;;;4879693;29;20643;-66
2022/09/10 05:25:12;;;;;;;0.40;0.20;;;;;;;;;;4873489;29;20058;-66
2022/09/10 05:27:43;;;;;;;0.35;0.13;;;;;;;;;;4931862;29;20100;-66
2022/09/10 05:30:18;;;;;;;0.15;0.10;;;;;;;;;;4914286;29;20055;-66
2022/09/10 05:32:52;;;;;;;0.68;0.17;;;;;;;;;;4894873;29;20450;-67
2022/09/10 05:35:22;;;;;;;0.60;0.17;;;;;;;;;;4876312;29;20049;-67
2022/09/10 05:37:56;;;;;;;0.20;0.10;;;;;;;;;;4899041;29;20052;-66
2022/09/10 05:40:28;;;;;;;0.35;0.20;;;;;;;;;;4914479;29;20051;-66
2022/09/10 05:42:59;;;;;;;0.22;0.15;;;;;;;;;;4913504;29;20052;-66
2022/09/10 05:45:30;;;;;;;0.20;0.13;;;;;;;;;;4897994;29;20424;-67
2022/09/10 05:48:02;;;;;;;0.40;0.20;;;;;;;;;;4925889;29;20063;-69
2022/09/10 05:50:33;;;;;;;0.43;0.20;;;;;;;;;;4951757;28;20058;-69
2022/09/10 05:53:04;;;;;;;1.10;0.35;;;;;;;;;;4965220;28;20055;-68
2022/09/10 05:55:34;;;;;;;2.13;0.50;;;;;;;;;;4935712;29;20047;-68
2022/09/10 05:58:06;;;;;;;1.00;0.85;;;;;;;;;;4932396;29;20059;-69
2022/09/10 06:00:42;;;;;;;1.55;0.40;;;;;;;;;;4909107;29;20055;-69
2022/09/10 06:03:13;;;;;;;1.33;0.50;;;;;;;;;;4909717;29;20060;-68
2022/09/10 06:05:51;;;;;;;2.53;0.50;;;;;;;;;;4894558;29;20053;-69
2022/09/10 06:08:25;;;;;;;1.73;0.70;;;;;;;;;;4900624;29;20060;-67
2022/09/10 06:11:04;;;;;;;1.92;0.50;;;;;;;;;;4945190;29;20063;-67
2022/09/10 06:13:42;;;;;;;1.83;0.50;;;;;;;;;;4932355;29;20051;-66
2022/09/10 06:16:14;;;;;;;1.50;0.60;;;;;;;;;;4928524;29;20060;-66
2022/09/10 06:18:45;;;;;;;1.25;0.50;;;;;;;;;;4912996;29;20059;-66
2022/09/10 06:21:19;;;;;;;1.70;0.55;;;;;;;;;;4887360;29;20054;-66
2022/09/10 06:23:56;;;;;;;1.65;0.40;;;;;;;;;;4872579;29;20053;-66
2022/09/10 06:26:29;;;;;;;2.22;0.75;;;;;;;;;;4890810;29;20068;-66
2022/09/10 06:29:05;;;;;;;1.63;0.35;;;;;;;;;;4894261;29;20060;-66
2022/09/10 06:31:35;;;;;;;0.30;0.25;;;;;;;;;;4896733;29;20401;-66
2022/09/10 06:34:06;;;;;;;1.23;0.60;;;;;;;;;;4875326;29;20056;-65
2022/09/10 06:36:38;;;;;;;2.92;0.50;;;;;;;;;;4893919;29;20119;-66
2022/09/10 06:39:08;;;;;;;0.70;0.35;;;;;;;;;;4882050;29;20170;-66
2022/09/10 06:41:52;;;;;;;1.38;0.40;;;;;;;;;;4897984;29;20417;-66
2022/09/10 06:44:40;;;;;;;1.73;0.60;;;;;;;;;;4894411;29;20056;-68
2022/09/10 06:47:37;;;;;;;1.60;0.60;;;;;;;;;;4860794;29;20056;-70
2022/09/10 06:50:34;;;;;;;1.77;0.52;;;;;;;;;;4837920;29;20074;-69
2022/09/10 06:53:05;;;;;;;3.88;0.98;;;;;;;;;;4871270;29;20509;-70
2022/09/10 06:55:35;;;;;;;1.55;0.52;;;;;;;;;;4856248;29;20491;-68
2022/09/10 06:58:06;;;;;;;2.35;0.50;;;;;;;;;;4856805;29;20107;-67
2022/09/10 07:00:38;;;;;;;;;;;;;;;;;;4875348;29;20059;-66
2022/09/10 07:03:09;;;;;;;2.13;0.90;;;;;;;;;;4844276;29;19924;-67
2022/09/10 07:05:39;;;;;;;2.92;1.00;;;;;;;;;;4867883;29;20053;-66
2022/09/10 07:08:14;;;;;;;3.95;0.93;;;;;;;;;;4820212;29;20435;-66
2022/09/10 07:10:50;;;;;;;2.53;1.08;;;;;;;;;;4867073;29;20053;-66
2022/09/10 07:13:21;;;;;;;2.63;0.80;;;;;;;;;;4815713;29;20566;-66
2022/09/10 07:15:52;;;;;;;3.05;1.17;;;;;;;;;;4783517;30;20055;-66
2022/09/10 07:18:23;;;;;;;4.10;1.08;;;;;;;;;;4790155;29;20078;-66
2022/09/10 07:20:53;;;;;;;2.92;1.80;;;;;;;;;;4856626;29;20061;-66
2022/09/10 07:23:23;;;;;;;3.10;0.90;;;;;;;;;;4856845;29;20062;-66
2022/09/10 07:25:53;;;;;;;3.67;1.20;;;;;;;;;;4893402;29;20102;-66
2022/09/10 07:28:41;;;;;;;3.17;0.82;;;;;;;;;;4943730;29;20060;-66
2022/09/10 07:31:22;;;;;;;2.42;0.77;;;;;;;;;;4950384;29;20096;-66
2022/09/10 07:33:54;;;;;;;3.97;0.93;;;;;;;;;;4934332;29;20546;-65
2022/09/10 07:36:24;;;;;;;3.22;1.00;;;;;;;;;;4950705;29;20419;-65
2022/09/10 07:39:00;;;;;;;2.90;1.23;;;;;;;;;;4950263;29;20077;-66
2022/09/10 07:41:34;;;;;;;2.67;0.80;;;;;;;;;;4950757;29;20055;-66
2022/09/10 07:44:08;;;;;;;2.22;0.60;;;;;;;;;;4943027;29;20052;-66
2022/09/10 07:46:42;;;;;;;4.07;0.90;;;;;;;;;;4931092;29;20059;-67
2022/09/10 07:49:15;;;;;;;2.70;0.70;;;;;;;;;;4884914;29;20445;-66
2022/09/10 07:51:53;;;;;;;3.50;1.02;;;;;;;;;;4893395;29;20057;-65
2022/09/10 07:54:37;;;;;;;1.65;0.60;;;;;;;;;;4886071;29;20171;-65
2022/09/10 07:57:08;;;;;;;2.05;0.60;;;;;;;;;;4921407;29;20424;-66
2022/09/10 07:59:38;;;;;;;2.30;0.63;;;;;;;;;;4870809;29;20062;-65
2022/09/10 08:02:14;;;;;;;2.85;1.00;;;;;;;;;;4868499;29;20545;-65
2022/09/10 08:04:53;;;;;;;2.55;0.63;;;;;;;;;;4874527;29;20064;-66
2022/09/10 08:07:23;;;;;;;2.25;1.10;;;;;;;;;;4889839;29;20071;-66
2022/09/10 08:09:53;;;;;;;2.20;0.63;;;;;;;;;;4892151;29;20077;-66
2022/09/10 08:12:24;;;;;;;2.53;0.88;;;;;;;;;;4893293;29;20053;-66
2022/09/10 08:14:56;;;;;;;1.73;0.70;;;;;;;;;;4895211;29;20060;-66
2022/09/10 08:17:30;;;;;;;2.20;1.10;;;;;;;;;;4920987;29;20043;-66
2022/09/10 08:20:03;;;;;;;1.38;0.55;;;;;;;;;;4896766;29;20064;-66
2022/09/10 08:22:34;;;;;;;1.13;0.38;;;;;;;;;;4865433;29;20095;-66
2022/09/10 08:25:06;;;;;;;1.58;0.68;;;;;;;;;;4892476;29;20056;-66
2022/09/10 08:27:37;;;;;;;1.20;0.52;;;;;;;;;;4874097;29;20049;-66
2022/09/10 08:30:09;;;;;;;3.67;0.65;;;;;;;;;;4840573;29;20062;-66
2022/09/10 08:32:39;;;;;;;1.63;0.60;;;;;;;;;;4887392;29;20053;-66
2022/09/10 08:35:10;;;;;;;1.30;0.73;;;;;;;;;;4896164;29;20567;-65
2022/09/10 08:37:42;;;;;;;1.80;0.63;;;;;;;;;;4896477;29;20591;-66
2022/09/10 08:40:15;;;;;;;2.10;0.60;;;;;;;;;;4866093;29;20146;-66
2022/09/10 08:42:49;;;;;;;2.95;0.85;;;;;;;;;;4885193;29;20061;-66
2022/09/10 08:45:31;;;;;;;1.75;0.68;;;;;;;;;;4858623;29;20061;-66
2022/09/10 08:48:22;;;;;;;2.15;0.63;;;;;;;;;;4824942;29;20057;-66
2022/09/10 08:51:09;;;;;;;1.75;0.60;;;;;;;;;;4846851;29;20588;-66
2022/09/10 08:53:44;;;;;;;;;;;;;;;;;;4877138;29;20057;-69
2022/09/10 08:56:19;;;;;;;1.05;0.52;;;;;;;;;;4843526;29;19931;-71
2022/09/10 08:58:57;;;;;;;2.20;0.70;;;;;;;;;;4858373;29;20046;-68
2022/09/10 09:01:39;;;;;;;1.23;0.43;;;;;;;;;;4876829;29;20056;-69
2022/09/10 09:04:41;;;;;;;1.45;0.60;;;;;;;;;;4895523;29;20049;-69
2022/09/10 09:07:15;;;;;;;1.23;0.45;;;;;;;;;;4858132;29;20064;-68
2022/09/10 09:09:50;;;;;;;1.23;0.50;;;;;;;;;;4895298;29;20045;-66
2022/09/10 09:12:32;;;;;;;1.65;0.77;;;;;;;;;;4908573;29;20589;-67
2022/09/10 09:15:26;;;;;;;1.70;0.60;;;;;;;;;;4895550;29;20072;-67
2022/09/10 09:18:28;;;;;;;1.60;0.73;;;;;;;;;;4895542;29;20056;-67
2022/09/10 09:21:12;;;;;;;2.03;0.60;;;;;;;;;;4895486;29;20051;-67
2022/09/10 09:23:54;;;;;;;0.70;0.40;;;;;;;;;;4895621;29;20065;-66
2022/09/10 09:26:48;;;;;;;1.00;0.32;;;;;;;;;;4858840;29;20090;-67
2022/09/10 09:29:42;;;;;;;2.10;0.70;;;;;;;;;;4857936;29;20121;-67
2022/09/10 09:32:17;;;;;;;1.55;0.55;;;;;;;;;;4859948;29;20407;-67
2022/09/10 09:35:09;;;;;;;1.88;0.70;;;;;;;;;;4888652;29;20052;-67
2022/09/10 09:37:47;;;;;;;3.83;0.90;;;;;;;;;;4873379;29;20425;-67
2022/09/10 09:40:42;;;;;;;2.83;0.82;;;;;;;;;;4857903;29;20387;-67
2022/09/10 09:43:55;;;;;;;4.47;0.60;;;;;;;;;;4894961;29;20060;-66
2022/09/10 09:46:27;;;;;;;1.73;0.80;;;;;;;;;;4837877;29;20498;-67
2022/09/10 09:49:01;;;;;;;5.13;1.25;;;;;;;;;;4837659;29;20518;-66
2022/09/10 09:51:35;;;;;;;3.42;1.30;;;;;;;;;;4803690;29;20059;-66
2022/09/10 09:54:13;;;;;;;2.83;1.20;;;;;;;;;;4808613;29;20061;-66
2022/09/10 09:57:15;;;;;;;3.60;1.08;;;;;;;;;;4839239;29;20058;-66
2022/09/10 09:59:48;;;;;;;2.00;0.88;;;;;;;;;;4839163;29;20065;-66
2022/09/10 10:02:29;;;;;;;3.38;0.98;;;;;;;;;;4853575;29;20100;-66
2022/09/10 10:05:06;;;;;;;2.67;1.00;;;;;;;;;;4839428;29;20062;-66
2022/09/10 10:07:36;;;;;;;5.07;1.02;;;;;;;;;;4811693;29;20176;-66
2022/09/10 10:10:20;;;;;;;3.70;1.10;;;;;;;;;;4813301;29;20065;-66
2022/09/10 10:12:52;;;;;;;3.42;1.20;;;;;;;;;;4820782;29;20077;-66
2022/09/10 10:15:40;;;;;;;4.00;1.25;;;;;;;;;;4819852;29;20051;-66
2022/09/10 10:18:31;;;;;;;2.97;0.95;;;;;;;;;;4805423;29;20581;-66
2022/09/10 10:21:29;;;;;;;3.78;1.15;;;;;;;;;;4830940;29;20054;-66
2022/09/10 10:24:00;;;;;;;3.38;0.95;;;;;;;;;;4913293;29;20424;-66
2022/09/10 10:26:33;;;;;;;4.20;1.33;;;;;;;;;;4968196;28;20061;-66
2022/09/10 10:29:17;;;;;;;2.95;1.13;;;;;;;;;;4976642;28;20054;-66
2022/09/10 10:31:50;;;;;;;4.43;1.98;;;;;;;;;;5006949;28;20402;-66
2022/09/10 10:34:52;;;;;;;4.40;1.38;;;;;;;;;;5009097;28;20844;-66
2022/09/10 10:37:40;;;;;;;2.95;1.30;;;;;;;;;;5008895;28;20209;-66
2022/09/10 10:40:25;;;;;;;3.22;1.35;;;;;;;;;;5009531;28;20054;-66
2022/09/10 10:43:13;;;;;;;5.95;2.28;;;;;;;;;;4994006;28;20061;-66
2022/09/10 10:45:53;;;;;;;41.40;13.40;;;;;;;;;;4993359;28;20057;-66
2022/09/10 10:48:28;;;;;;;;;;;;;;;;;;4994178;28;20061;-66
2022/09/10 10:51:13;;;;;;;5.43;1.23;;;;;;;;;;4976855;28;20393;-66
2022/09/10 10:53:47;;;;;;;4.13;0.88;;;;;;;;;;5009104;28;20053;-66
2022/09/10 10:56:41;;;;;;;5.15;1.45;;;;;;;;;;5009376;28;20049;-66
2022/09/10 10:59:30;;;;;;;4.18;1.30;;;;;;;;;;4961206;28;20045;-66
2022/09/10 11:02:21;;;;;;;2.28;1.10;;;;;;;;;;5028982;28;20061;-67
2022/09/10 11:04:54;;;;;;;4.22;1.58;;;;;;;;;;5012977;28;20061;-66
2022/09/10 11:07:39;;;;;;;2.47;0.98;;;;;;;;;;4995931;28;20072;-66
2022/09/10 11:10:18;;;;;;;3.70;1.42;;;;;;;;;;5044361;28;20056;-66
2022/09/10 11:13:04;;;;;;;3.25;1.20;;;;;;;;;;5031904;28;20066;-66
2022/09/10 11:15:40;;;;;;;4.65;1.27;;;;;;;;;;5069002;28;20048;-68
2022/09/10 11:18:32;;;;;;;3.47;1.38;;;;;;;;;;5068674;28;20052;-67
2022/09/10 11:21:07;;;;;;;4.78;1.27;;;;;;;;;;5068074;28;20052;-66
2022/09/10 11:23:59;;;;;;;3.65;1.50;;;;;;;;;;5068848;28;20184;-67
2022/09/10 11:26:39;;;;;;;1.60;0.80;;;;;;;;;;5019992;28;20056;-66
2022/09/10 11:29:24;;;;;;;3.80;1.45;;;;;;;;;;5068585;28;20048;-67
2022/09/10 11:31:54;;;;;;;2.78;1.33;;;;;;;;;;5048489;28;20049;-67
2022/09/10 11:34:56;;;;;;;5.43;1.60;;;;;;;;;;5048469;28;20061;-67
2022/09/10 11:37:47;;;;;;;6.93;2.00;;;;;;;;;;5015676;28;20060;-66
2022/09/10 11:40:32;;;;;;;6.07;1.55;;;;;;;;;;5008615;28;20065;-67
2022/09/10 11:43:13;;;;;;;5.47;1.27;;;;;;;;;;5025035;28;20506;-67
2022/09/10 11:45:52;;;;;;;4.40;0.90;;;;;;;;;;5008836;28;20073;-67
2022/09/10 11:48:31;;;;;;;3.05;1.35;;;;;;;;;;5009919;28;20046;-68
2022/09/10 11:51:07;;;;;;;3.78;1.92;;;;;;;;;;5012537;28;20065;-67
2022/09/10 11:53:37;;;;;;;8.98;2.10;;;;;;;;;;5015075;28;20049;-66
2022/09/10 11:56:13;;;;;;;7.85;1.90;;;;;;;;;;5032320;28;20096;-67
2022/09/10 11:59:10;;;;;;;7.20;2.90;;;;;;;;;;5022230;28;20549;-66
2022/09/10 12:01:48;;;;;;;4.60;1.55;;;;;;;;;;5012196;28;20065;-67
2022/09/10 12:04:39;;;;;;;5.18;1.77;;;;;;;;;;5012285;28;20505;-66
2022/09/10 12:07:35;;;;;;;2.63;1.20;;;;;;;;;;5012541;28;20046;-67
2022/09/10 12:10:35;;;;;;;5.15;1.52;;;;;;;;;;4993702;28;20072;-66
2022/09/10 12:13:14;;;;;;;5.35;1.65;;;;;;;;;;5031946;28;20631;-67
2022/09/10 12:15:58;;;;;;;6.03;1.88;;;;;;;;;;5011986;28;20049;-67
2022/09/10 12:18:40;;;;;;;5.15;1.67;;;;;;;;;;5013101;28;20128;-67
2022/09/10 12:21:40;;;;;;;5.47;1.23;;;;;;;;;;5018892;28;20049;-67
2022/09/10 12:24:35;;;;;;;3.88;1.58;;;;;;;;;;5018697;28;20049;-67
2022/09/10 12:27:06;;;;;;;2.97;1.20;;;;;;;;;;5035255;28;20456;-67
2022/09/10 12:29:41;;;;;;;3.67;1.58;;;;;;;;;;5018447;28;20087;-67
2022/09/10 12:32:21;;;;;;;4.72;1.30;;;;;;;;;;5034093;28;20053;-67
2022/09/10 12:35:30;;;;;;;3.97;1.17;;;;;;;;;;5031793;28;20413;-67
2022/09/10 12:38:40;;;;;;;2.65;1.02;;;;;;;;;;5051676;28;20048;-68
2022/09/10 12:41:32;;;;;;;2.28;0.90;;;;;;;;;;5047371;28;20052;-67
2022/09/10 12:44:23;;;;;;;2.47;0.93;;;;;;;;;;5051025;28;20057;-67
2022/09/10 12:47:12;;;;;;;;;;;;;;;;;;5051591;28;20064;-66
2022/09/10 12:49:52;;;;;;;4.35;1.33;;;;;;;;;;5051473;28;19920;-67
2022/09/10 12:52:52;;;;;;;4.88;1.45;;;;;;;;;;5050829;28;20049;-67
2022/09/10 12:55:49;;;;;;;2.20;1.20;;;;;;;;;;5050737;28;20060;-67
2022/09/10 12:58:32;;;;;;;2.85;0.95;;;;;;;;;;5001952;28;20052;-67
2022/09/10 13:01:34;;;;;;;6.95;2.67;;;;;;;;;;5030331;28;20049;-67
2022/09/10 13:04:15;;;;;;;4.20;1.40;;;;;;;;;;5030034;28;20050;-66
2022/09/10 13:06:48;;;;;;;2.05;0.95;;;;;;;;;;5030644;28;20045;-66
2022/09/10 13:09:39;;;;;;;1.88;0.75;;;;;;;;;;5030712;28;20057;-67
2022/09/10 13:12:22;;;;;;;4.50;1.10;;;;;;;;;;5007059;28;20049;-67
2022/09/10 13:14:56;;;;;;;3.47;0.68;;;;;;;;;;4991535;28;20055;-66
2022/09/10 13:17:58;;;;;;;4.55;1.38;;;;;;;;;;4991248;28;20070;-67
2022/09/10 13:20:31;;;;;;;5.35;1.00;;;;;;;;;;4937008;28;20074;-67
2022/09/10 13:23:08;;;;;;;2.72;1.02;;;;;;;;;;4977046;28;20199;-68
2022/09/10 13:25:41;;;;;;;3.17;1.00;;;;;;;;;;4971791;28;20058;-66
2022/09/10 13:28:31;;;;;;;3.88;1.20;;;;;;;;;;4955871;28;20070;-67
2022/09/10 13:31:17;;;;;;;3.70;1.30;;;;;;;;;;4945543;28;20063;-68
2022/09/10 13:33:53;;;;;;;2.72;1.42;;;;;;;;;;4970877;28;20043;-67
2022/09/10 13:36:32;;;;;;;3.25;1.15;;;;;;;;;;4967137;28;20054;-68
2022/09/10 13:39:38;;;;;;;2.00;1.10;;;;;;;;;;4968735;28;20447;-67
2022/09/10 13:42:23;;;;;;;1.92;0.90;;;;;;;;;;4965708;28;20059;-67
2022/09/10 13:45:12;;;;;;;4.97;0.98;;;;;;;;;;4971369;28;20066;-67
2022/09/10 13:48:01;;;;;;;2.70;1.40;;;;;;;;;;4984947;28;20412;-67
2022/09/10 13:50:44;;;;;;;3.83;1.08;;;;;;;;;;5002746;28;20050;-67
2022/09/10 13:53:17;;;;;;;2.88;0.90;;;;;;;;;;4998326;28;20190;-68
2022/09/10 13:55:57;;;;;;;3.00;0.98;;;;;;;;;;5013520;28;20059;-67
2022/09/10 13:58:34;;;;;;;2.08;0.93;;;;;;;;;;5056751;28;20427;-68
2022/09/10 14:01:04;;;;;;;2.90;0.80;;;;;;;;;;5053098;28;20060;-67
2022/09/10 14:03:37;;;;;;;4.75;1.52;;;;;;;;;;5069589;28;20096;-69
2022/09/10 14:06:24;;;;;;;4.13;1.25;;;;;;;;;;5069628;28;20064;-68
2022/09/10 14:09:00;;;;;;;5.65;1.75;;;;;;;;;;5069468;28;20508;-69
2022/09/10 14:11:34;;;;;;;2.22;1.15;;;;;;;;;;5069008;28;20048;-68
2022/09/10 14:14:16;;;;;;;5.20;1.10;;;;;;;;;;5036312;28;20440;-70
2022/09/10 14:16:57;;;;;;;7.03;1.33;;;;;;;;;;5069473;28;20051;-68
2022/09/10 14:19:54;;;;;;;3.05;1.40;;;;;;;;;;5069392;28;20061;-68
2022/09/10 14:22:25;;;;;;;3.45;1.65;;;;;;;;;;5069741;28;20083;-68
2022/09/10 14:25:00;;;;;;;2.78;1.42;;;;;;;;;;5069526;28;20067;-67
2022/09/10 14:27:33;;;;;;;3.58;1.50;;;;;;;;;;5069558;28;20487;-70
2022/09/10 14:30:25;;;;;;;4.10;1.40;;;;;;;;;;5015552;28;20548;-69
2022/09/10 14:33:30;;;;;;;3.72;1.27;;;;;;;;;;4966381;28;20078;-68
2022/09/10 14:36:33;;;;;;;5.63;1.10;;;;;;;;;;4951513;29;20543;-69
2022/09/10 14:39:16;;;;;;;3.22;1.23;;;;;;;;;;4922074;29;20055;-68
2022/09/10 14:41:47;;;;;;;2.28;0.60;;;;;;;;;;4951136;29;20066;-67
2022/09/10 14:44:24;;;;;;;4.28;1.13;;;;;;;;;;4951261;29;20090;-68
2022/09/10 14:47:11;;;;;;;2.80;1.15;;;;;;;;;;4931391;29;20051;-68
2022/09/10 14:49:45;;;;;;;2.35;1.05;;;;;;;;;;4899912;29;20070;-69
2022/09/10 14:52:16;;;;;;;4.38;1.52;;;;;;;;;;4931808;29;20051;-69
2022/09/10 14:54:47;;;;;;;2.38;1.05;;;;;;;;;;4931450;29;20059;-69
2022/09/10 14:57:18;;;;;;;2.05;1.17;;;;;;;;;;4900566;29;20055;-69
2022/09/10 14:59:48;;;;;;;2.75;1.10;;;;;;;;;;4884553;29;20047;-70
2022/09/10 15:02:27;;;;;;;2.53;1.10;;;;;;;;;;4931698;29;20060;-70
2022/09/10 15:04:58;;;;;;;1.98;0.60;;;;;;;;;;4931592;29;20114;-70
2022/09/10 15:07:28;;;;;;;3.25;0.93;;;;;;;;;;4931889;29;20052;-70
2022/09/10 15:10:00;;;;;;;2.47;1.17;;;;;;;;;;4927854;29;20052;-71
2022/09/10 15:12:32;;;;;;;2.95;1.20;;;;;;;;;;4915372;29;20444;-69
2022/09/10 15:15:02;;;;;;;3.63;1.70;;;;;;;;;;4954674;28;20059;-70
2022/09/10 15:17:34;;;;;;;1.73;0.73;;;;;;;;;;4985105;28;20055;-70
2022/09/10 15:20:05;;;;;;;1.40;0.57;;;;;;;;;;4937950;28;20054;-69
2022/09/10 15:22:35;;;;;;;2.70;1.25;;;;;;;;;;4985924;28;20062;-71
2022/09/10 15:25:06;;;;;;;3.63;0.90;;;;;;;;;;5002018;28;20552;-69
2022/09/10 15:27:40;;;;;;;3.70;1.65;;;;;;;;;;5038087;28;20460;-70
2022/09/10 15:30:10;;;;;;;2.78;1.33;;;;;;;;;;5019533;28;20048;-69
2022/09/10 15:32:40;;;;;;;2.17;1.23;;;;;;;;;;5052827;28;20521;-68
2022/09/10 15:35:12;;;;;;;2.78;1.30;;;;;;;;;;4999473;28;20046;-69
2022/09/10 15:37:42;;;;;;;2.53;1.20;;;;;;;;;;5032696;28;20061;-68
2022/09/10 15:40:12;;;;;;;2.15;0.98;;;;;;;;;;5028501;28;20520;-68
2022/09/10 15:42:42;;;;;;;2.17;1.17;;;;;;;;;;5012887;28;20065;-70